createdAt,value
2018-09-21T00:02:13.182Z,49.20
2018-09-21T00:05:16.136Z,49.30
2018-09-21T00:08:19.069Z,49.90
2018-09-21T00:11:21.996Z,49.70
2018-09-21T00:14:24.886Z,49.70
2018-09-21T00:17:27.861Z,49.60
2018-09-21T00:20:30.817Z,50.10
2018-09-21T00:23:33.736Z,49.90
2018-09-21T00:26:36.669Z,49.90
2018-09-21T00:29:39.605Z,50.30
2018-09-21T00:32:42.564Z,50.00
2018-09-21T00:35:45.508Z,50.20
2018-09-21T00:38:48.461Z,50.20
2018-09-21T00:41:51.440Z,50.30
2018-09-21T00:44:54.393Z,50.30
2018-09-21T00:47:57.314Z,50.20
2018-09-21T00:51:00.272Z,50.50
2018-09-21T00:54:03.282Z,50.50
2018-09-21T00:57:06.183Z,50.50
2018-09-21T01:00:09.133Z,50.50
2018-09-21T01:03:12.063Z,50.50
2018-09-21T01:06:15.001Z,50.80
2018-09-21T01:09:17.913Z,50.60
2018-09-21T01:12:20.877Z,50.70
2018-09-21T01:15:23.832Z,50.80
2018-09-21T01:18:26.788Z,51.70
2018-09-21T01:21:29.733Z,51.00
2018-09-21T01:24:32.700Z,50.80
2018-09-21T01:27:35.626Z,50.90
2018-09-21T01:30:38.549Z,51.20
2018-09-21T01:33:41.501Z,51.10
2018-09-21T01:36:44.374Z,51.40
2018-09-21T01:39:47.321Z,51.30
2018-09-21T01:42:50.281Z,51.50
2018-09-21T01:45:53.199Z,51.50
2018-09-21T01:48:56.119Z,51.90
2018-09-21T01:51:59.060Z,51.70
2018-09-21T01:55:02.042Z,51.60
2018-09-21T01:58:04.946Z,51.60
2018-09-21T02:01:07.865Z,51.70
2018-09-21T02:04:10.786Z,52.00
2018-09-21T02:07:13.744Z,51.70
2018-09-21T02:10:16.660Z,52.10
2018-09-21T02:13:19.633Z,52.00
2018-09-21T02:16:22.673Z,52.10
2018-09-21T02:19:25.662Z,52.60
2018-09-21T02:22:28.634Z,52.10
2018-09-21T02:25:31.556Z,52.50
2018-09-21T02:28:34.492Z,52.10
2018-09-21T02:31:37.403Z,52.00
2018-09-21T02:34:40.282Z,52.10
2018-09-21T02:37:43.157Z,52.00
2018-09-21T02:40:46.129Z,52.20
2018-09-21T02:43:49.258Z,52.70
2018-09-21T02:46:52.172Z,52.10
2018-09-21T02:49:55.081Z,52.30
2018-09-21T02:52:58.015Z,52.30
2018-09-21T02:56:00.950Z,52.60
2018-09-21T02:59:04.031Z,52.20
2018-09-21T03:02:06.914Z,52.70
2018-09-21T03:05:09.906Z,52.00
2018-09-21T03:08:12.844Z,52.30
2018-09-21T03:11:15.837Z,52.00
2018-09-21T03:14:18.749Z,52.20
2018-09-21T03:17:21.629Z,51.90
2018-09-21T03:23:32.924Z,52.80
2018-09-21T03:26:35.845Z,51.70
2018-09-21T03:29:38.808Z,51.70
2018-09-21T03:32:41.749Z,51.30
2018-09-21T03:35:44.700Z,51.60
2018-09-21T03:38:47.622Z,51.40
2018-09-21T03:41:50.592Z,51.30
2018-09-21T03:44:53.492Z,51.20
2018-09-21T03:47:56.487Z,51.80
2018-09-21T03:50:59.452Z,51.40
2018-09-21T03:54:02.330Z,51.30
2018-09-21T03:57:05.314Z,51.20
2018-09-21T04:00:08.652Z,50.90
2018-09-21T04:03:11.607Z,51.20
2018-09-21T04:06:14.496Z,50.80
2018-09-21T04:09:17.500Z,51.20
2018-09-21T04:12:20.433Z,50.90
2018-09-21T04:15:23.371Z,51.00
2018-09-21T04:18:26.293Z,50.90
2018-09-21T04:21:29.233Z,51.10
2018-09-21T04:24:32.139Z,50.80
2018-09-21T04:27:35.148Z,50.90
2018-09-21T04:30:38.097Z,50.80
2018-09-21T04:33:41.013Z,50.80
2018-09-21T04:36:43.930Z,50.90
2018-09-21T04:39:46.830Z,50.90
2018-09-21T04:42:50.168Z,51.20
2018-09-21T04:45:53.252Z,51.20
2018-09-21T04:48:56.189Z,51.40
2018-09-21T04:51:59.086Z,51.70
2018-09-21T04:55:02.014Z,51.50
2018-09-21T04:58:04.894Z,51.60
2018-09-21T05:01:07.861Z,52.30
2018-09-21T05:04:10.798Z,51.90
2018-09-21T05:07:13.776Z,51.80
2018-09-21T05:10:16.706Z,52.10
2018-09-21T05:13:19.646Z,52.10
2018-09-21T05:16:22.566Z,52.10
2018-09-21T05:19:25.525Z,52.20
2018-09-21T05:22:28.452Z,52.10
2018-09-21T05:25:31.410Z,52.30
2018-09-21T05:28:34.321Z,52.30
2018-09-21T05:31:37.267Z,52.60
2018-09-21T05:34:40.364Z,52.70
2018-09-21T05:37:43.139Z,53.00
2018-09-21T05:40:45.991Z,53.20
2018-09-21T05:43:48.917Z,53.40
2018-09-21T05:46:51.849Z,53.30
2018-09-21T05:49:55.281Z,53.40
2018-09-21T05:52:58.728Z,53.50
2018-09-21T05:56:02.184Z,53.80
2018-09-21T05:59:05.990Z,53.80
2018-09-21T06:02:09.404Z,53.70
2018-09-21T06:05:12.414Z,53.80
2018-09-21T06:08:15.373Z,54.00
2018-09-21T06:11:18.279Z,54.00
2018-09-21T06:14:21.536Z,54.20
2018-09-21T06:17:24.472Z,54.50
2018-09-21T06:20:28.021Z,54.40
2018-09-21T06:23:30.983Z,54.50
2018-09-21T06:26:33.932Z,54.40
2018-09-21T06:29:36.816Z,54.70
2018-09-21T06:32:39.757Z,54.90
2018-09-21T06:35:43.232Z,54.80
2018-09-21T06:38:46.161Z,54.60
2018-09-21T06:41:49.077Z,54.60
2018-09-21T06:44:52.259Z,54.50
2018-09-21T06:47:55.788Z,54.50
2018-09-21T06:50:58.662Z,54.60
2018-09-21T06:54:01.595Z,54.60
2018-09-21T06:57:04.505Z,54.30
2018-09-21T07:00:07.561Z,54.50
2018-09-21T07:03:10.474Z,54.50
2018-09-21T07:06:13.526Z,54.00
2018-09-21T07:09:16.469Z,53.90
2018-09-21T07:12:19.408Z,54.00
2018-09-21T07:15:22.325Z,53.70
2018-09-21T07:18:25.267Z,53.70
2018-09-21T07:21:28.720Z,53.30
2018-09-21T07:24:31.669Z,53.40
2018-09-21T07:27:34.638Z,53.90
2018-09-21T07:30:37.725Z,53.50
2018-09-21T07:33:40.697Z,53.50
2018-09-21T07:36:43.610Z,53.40
2018-09-21T07:39:46.549Z,53.40
2018-09-21T07:42:49.538Z,53.30
2018-09-21T07:45:52.425Z,53.50
2018-09-21T07:48:55.326Z,53.30
2018-09-21T07:51:58.270Z,53.10
2018-09-21T07:55:01.710Z,52.90
2018-09-21T07:58:04.696Z,52.70
2018-09-21T08:01:07.917Z,53.00
2018-09-21T08:04:11.355Z,52.30
2018-09-21T08:07:14.344Z,52.50
2018-09-21T08:10:17.614Z,52.80
2018-09-21T08:13:20.630Z,53.80
2018-09-21T08:16:23.573Z,54.80
2018-09-21T08:19:26.527Z,55.70
2018-09-21T08:22:29.421Z,56.40
2018-09-21T08:25:32.804Z,56.70
2018-09-21T08:28:36.441Z,56.00
2018-09-21T08:31:39.434Z,56.00
2018-09-21T08:34:42.722Z,56.40
2018-09-21T08:37:46.232Z,55.30
2018-09-21T08:40:49.620Z,55.20
2018-09-21T08:43:52.868Z,55.20
2018-09-21T08:46:55.774Z,55.40
2018-09-21T08:49:58.706Z,55.40
2018-09-21T08:53:01.729Z,57.00
2018-09-21T08:56:05.537Z,57.70
2018-09-21T08:59:08.542Z,57.30
2018-09-21T09:02:11.426Z,56.80
2018-09-21T09:05:14.944Z,59.90
2018-09-21T09:08:17.918Z,62.20
2018-09-21T09:11:20.817Z,65.20
2018-09-21T09:14:23.878Z,68.30
2018-09-21T09:17:26.826Z,70.30
2018-09-21T09:20:29.756Z,71.40
2018-09-21T09:23:32.695Z,68.10
2018-09-21T09:26:36.126Z,63.90
2018-09-21T09:29:39.138Z,63.60
2018-09-21T09:32:42.080Z,64.60
2018-09-21T09:35:45.559Z,62.80
2018-09-21T09:38:48.987Z,64.70
2018-09-21T09:41:52.348Z,65.70
2018-09-21T09:44:55.773Z,65.10
2018-09-21T09:47:58.733Z,64.80
2018-09-21T09:51:01.690Z,65.80
2018-09-21T09:54:04.701Z,65.80
2018-09-21T09:57:08.109Z,66.10
2018-09-21T10:00:11.041Z,64.90
2018-09-21T10:03:13.930Z,65.40
2018-09-21T10:06:17.417Z,63.30
2018-09-21T10:09:20.360Z,65.70
2018-09-21T10:12:23.397Z,66.10
2018-09-21T10:15:26.400Z,64.30
2018-09-21T10:18:29.965Z,64.20
2018-09-21T10:21:32.913Z,65.00
2018-09-21T10:24:36.035Z,65.30
2018-09-21T10:27:39.069Z,65.60
2018-09-21T10:30:42.009Z,66.40
2018-09-21T10:33:45.094Z,65.30
2018-09-21T10:36:47.905Z,67.20
2018-09-21T10:39:50.874Z,67.90
2018-09-21T10:42:53.930Z,66.70
2018-09-21T10:45:57.347Z,66.10
2018-09-21T10:49:00.718Z,66.50
2018-09-21T10:52:03.802Z,67.10
2018-09-21T10:55:06.753Z,67.50
2018-09-21T10:58:09.678Z,66.20
2018-09-21T11:01:13.094Z,65.80
2018-09-21T11:04:16.037Z,67.30
2018-09-21T11:07:19.467Z,67.30
2018-09-21T11:10:22.408Z,67.10
2018-09-21T11:13:25.377Z,65.00
2018-09-21T11:16:28.979Z,66.80
2018-09-21T11:19:31.968Z,65.90
2018-09-21T11:22:35.486Z,65.60
2018-09-21T11:25:38.441Z,65.30
2018-09-21T11:28:41.346Z,67.30
2018-09-21T11:31:44.296Z,67.10
2018-09-21T11:34:47.590Z,67.50
2018-09-21T11:37:51.111Z,67.50
2018-09-21T11:40:54.227Z,67.50
2018-09-21T11:43:57.184Z,66.90
2018-09-21T11:47:00.139Z,69.80
2018-09-21T11:50:03.128Z,64.10
2018-09-21T11:53:06.175Z,60.20
2018-09-21T11:56:09.150Z,57.80
2018-09-21T11:59:12.218Z,59.30
2018-09-21T12:02:15.161Z,60.40
2018-09-21T12:05:18.750Z,63.60
2018-09-21T12:08:22.173Z,65.50
2018-09-21T12:11:25.108Z,64.60
2018-09-21T12:14:28.230Z,65.40
2018-09-21T12:17:31.195Z,65.20
2018-09-21T12:20:34.989Z,66.80
2018-09-21T12:23:38.060Z,65.40
2018-09-21T12:26:41.551Z,65.90
2018-09-21T12:29:44.512Z,64.20
2018-09-21T12:32:47.412Z,64.50
2018-09-21T12:35:50.563Z,65.20
2018-09-21T12:38:53.488Z,66.40
2018-09-21T12:41:57.048Z,65.00
2018-09-21T12:44:59.965Z,64.40
2018-09-21T12:48:02.966Z,65.50
2018-09-21T12:51:05.973Z,65.40
2018-09-21T12:54:09.016Z,63.90
2018-09-21T12:57:11.959Z,63.90
2018-09-21T13:00:15.666Z,63.90
2018-09-21T13:03:19.096Z,63.30
2018-09-21T13:06:22.178Z,62.00
2018-09-21T13:09:25.043Z,63.40
2018-09-21T13:12:28.703Z,63.20
2018-09-21T13:15:32.235Z,62.80
2018-09-21T13:18:35.381Z,63.00
2018-09-21T13:21:38.313Z,62.60
2018-09-21T13:24:41.232Z,62.50
2018-09-21T13:27:44.614Z,60.00
2018-09-21T13:30:47.545Z,59.40
2018-09-21T13:33:50.489Z,57.30
2018-09-21T13:36:53.400Z,56.30
2018-09-21T13:39:56.326Z,55.20
2018-09-21T13:42:59.856Z,53.50
2018-09-21T13:46:02.834Z,51.70
2018-09-21T13:49:05.841Z,50.40
2018-09-21T13:52:08.780Z,50.30
2018-09-21T13:55:11.703Z,52.00
2018-09-21T13:58:15.091Z,51.40
2018-09-21T14:01:18.692Z,51.30
2018-09-21T14:04:22.383Z,49.80
2018-09-21T14:07:26.073Z,49.30
2018-09-21T14:10:29.666Z,49.10
2018-09-21T14:13:32.583Z,49.20
2018-09-21T14:16:35.490Z,50.60
2018-09-21T14:19:38.453Z,49.00
2018-09-21T14:22:41.935Z,48.90
2018-09-21T14:25:45.379Z,48.30
2018-09-21T14:28:49.115Z,47.10
2018-09-21T14:31:52.197Z,47.30
2018-09-21T14:34:55.851Z,46.00
2018-09-21T14:37:58.888Z,44.20
2018-09-21T14:41:01.817Z,44.00
2018-09-21T14:44:04.904Z,44.00
2018-09-21T14:47:08.235Z,43.30
2018-09-21T14:50:11.763Z,45.20
2018-09-21T14:53:15.246Z,46.10
2018-09-21T14:56:17.663Z,45.40
2018-09-21T14:59:20.581Z,47.10
2018-09-21T15:02:23.528Z,45.80
2018-09-21T15:05:26.464Z,42.80
2018-09-21T15:08:29.465Z,43.80
2018-09-21T15:11:32.421Z,44.20
2018-09-21T15:14:35.360Z,44.00
2018-09-21T15:17:38.341Z,43.50
2018-09-21T15:20:41.284Z,44.10
2018-09-21T15:23:44.783Z,44.40
2018-09-21T15:26:47.726Z,45.30
2018-09-21T15:29:52.802Z,45.40
2018-09-21T15:32:55.750Z,46.70
2018-09-21T15:35:58.851Z,47.20
2018-09-21T15:39:01.849Z,46.00
2018-09-21T15:42:04.770Z,46.40
2018-09-21T15:45:09.611Z,46.70
2018-09-21T15:48:12.514Z,47.20
2018-09-21T15:51:15.569Z,48.10
2018-09-21T15:54:18.584Z,47.10
2018-09-21T15:57:21.585Z,46.80
2018-09-21T16:00:24.486Z,47.40
2018-09-21T16:03:27.853Z,45.70
2018-09-21T16:06:32.867Z,45.90
2018-09-21T16:09:36.313Z,46.10
2018-09-21T16:12:39.273Z,47.20
2018-09-21T16:15:42.174Z,46.20
2018-09-21T16:18:45.611Z,46.20
2018-09-21T16:21:48.607Z,46.00
2018-09-21T16:24:51.540Z,46.20
2018-09-21T16:27:54.991Z,46.40
2018-09-21T16:30:57.940Z,46.10
2018-09-21T16:34:00.878Z,47.10
2018-09-21T16:37:04.513Z,45.10
2018-09-21T16:40:07.453Z,44.30
2018-09-21T16:43:10.357Z,44.60
2018-09-21T16:46:13.933Z,44.20
2018-09-21T16:49:16.904Z,42.60
2018-09-21T16:52:19.875Z,42.40
2018-09-21T16:55:22.764Z,41.20
2018-09-21T16:58:26.337Z,42.80
2018-09-21T17:01:29.306Z,42.10
2018-09-21T17:04:32.314Z,41.60
2018-09-21T17:07:35.214Z,42.20
2018-09-21T17:10:38.181Z,41.10
2018-09-21T17:13:41.115Z,41.00
2018-09-21T17:16:44.093Z,40.20
2018-09-21T17:19:47.664Z,40.00
2018-09-21T17:22:50.605Z,39.80
2018-09-21T17:25:53.678Z,40.30
2018-09-21T17:28:56.672Z,40.20
2018-09-21T17:31:59.648Z,40.40
2018-09-21T17:35:04.549Z,40.10
2018-09-21T17:38:08.049Z,40.80
2018-09-21T17:41:11.100Z,41.40
2018-09-21T17:44:14.053Z,40.20
2018-09-21T17:47:17.546Z,40.70
2018-09-21T17:50:20.493Z,40.70
2018-09-21T17:53:23.437Z,41.30
2018-09-21T17:56:26.370Z,41.60
2018-09-21T17:59:29.314Z,41.40
2018-09-21T18:02:32.824Z,40.80
2018-09-21T18:05:35.782Z,41.00
2018-09-21T18:08:38.675Z,41.10
2018-09-21T18:11:41.555Z,41.70
2018-09-21T18:14:45.084Z,41.90
2018-09-21T18:17:48.104Z,41.30
2018-09-21T18:20:51.041Z,41.90
2018-09-21T18:23:53.965Z,41.80
2018-09-21T18:26:56.938Z,42.20
2018-09-21T18:29:59.857Z,44.30
2018-09-21T18:33:02.840Z,42.30
2018-09-21T18:36:05.837Z,42.90
2018-09-21T18:39:09.450Z,42.90
2018-09-21T18:42:12.416Z,42.70
2018-09-21T18:45:15.460Z,42.10
2018-09-21T18:48:18.960Z,42.20
2018-09-21T18:51:21.915Z,42.80
2018-09-21T18:54:24.805Z,42.90
2018-09-21T18:57:28.297Z,44.50
2018-09-21T19:00:31.875Z,45.80
2018-09-21T19:03:35.540Z,46.40
2018-09-21T19:06:38.500Z,46.40
2018-09-21T19:09:41.441Z,46.30
2018-09-21T19:12:44.372Z,46.10
2018-09-21T19:15:47.293Z,45.50
2018-09-21T19:18:50.347Z,46.60
2018-09-21T19:21:53.201Z,45.90
2018-09-21T19:24:56.158Z,45.80
2018-09-21T19:27:59.651Z,46.00
2018-09-21T19:31:03.165Z,46.50
2018-09-21T19:34:06.184Z,47.00
2018-09-21T19:37:09.199Z,46.90
2018-09-21T19:40:12.150Z,46.70
2018-09-21T19:43:15.797Z,46.50
2018-09-21T19:46:18.810Z,46.90
2018-09-21T19:49:21.757Z,46.10
2018-09-21T19:52:24.702Z,47.40
2018-09-21T19:55:28.288Z,47.20
2018-09-21T19:58:31.249Z,47.00
2018-09-21T20:01:34.160Z,47.40
2018-09-21T20:04:37.682Z,47.10
2018-09-21T20:07:41.573Z,47.30
2018-09-21T20:10:45.031Z,47.10
2018-09-21T20:13:47.945Z,47.10
2018-09-21T20:16:50.814Z,47.30
2018-09-21T20:19:53.781Z,48.10
2018-09-21T20:22:56.777Z,47.50
2018-09-21T20:25:59.681Z,47.20
2018-09-21T20:29:02.674Z,47.50
2018-09-21T20:32:11.616Z,47.30
2018-09-21T20:35:15.109Z,47.30
2018-09-21T20:38:18.110Z,47.30
2018-09-21T20:41:21.892Z,47.50
2018-09-21T20:44:24.876Z,46.90
2018-09-21T20:47:27.792Z,48.00
2018-09-21T20:50:31.231Z,48.30
2018-09-21T20:53:34.142Z,47.60
2018-09-21T20:56:37.070Z,48.20
2018-09-21T20:59:39.985Z,47.60
2018-09-21T21:02:42.893Z,47.60
2018-09-21T21:05:46.396Z,47.40
2018-09-21T21:08:49.834Z,46.90
2018-09-21T21:11:52.801Z,47.30
2018-09-21T21:14:55.777Z,47.30
2018-09-21T21:17:58.708Z,47.80
2018-09-21T21:21:01.637Z,47.60
2018-09-21T21:24:04.559Z,48.00
2018-09-21T21:27:07.493Z,48.10
2018-09-21T21:30:10.401Z,48.00
2018-09-21T21:33:13.317Z,48.40
2018-09-21T21:36:16.896Z,48.30
2018-09-21T21:39:20.271Z,48.60
2018-09-21T21:42:23.228Z,49.00
2018-09-21T21:45:26.254Z,49.30
2018-09-21T21:48:29.177Z,49.20
2018-09-21T21:51:32.148Z,49.70
2018-09-21T21:54:35.050Z,49.80
2018-09-21T21:57:37.995Z,49.80
2018-09-21T22:00:46.572Z,50.40
2018-09-21T22:03:49.527Z,50.60
2018-09-21T22:06:52.476Z,50.80
2018-09-21T22:09:55.421Z,51.10
2018-09-21T22:13:03.878Z,50.90
2018-09-21T22:16:06.769Z,51.00
2018-09-21T22:19:10.154Z,51.40
2018-09-21T22:22:13.080Z,51.70
2018-09-21T22:25:16.017Z,51.30
2018-09-21T22:28:18.995Z,51.60
2018-09-21T22:31:21.920Z,52.50
2018-09-21T22:34:24.861Z,51.90
2018-09-21T22:37:28.201Z,52.30
2018-09-21T22:40:31.164Z,52.50
2018-09-21T22:43:34.097Z,52.60
2018-09-21T22:46:37.018Z,53.10
2018-09-21T22:49:39.936Z,53.10
2018-09-21T22:52:42.919Z,53.50
2018-09-21T22:55:45.813Z,53.70
2018-09-21T22:58:48.745Z,53.80
2018-09-21T23:01:51.705Z,54.00
2018-09-21T23:04:54.634Z,54.10
2018-09-21T23:07:57.649Z,54.10
2018-09-21T23:11:00.565Z,53.70
2018-09-21T23:14:03.481Z,53.80
2018-09-21T23:17:06.441Z,53.60
2018-09-21T23:20:09.457Z,53.80
2018-09-21T23:23:12.419Z,53.30
2018-09-21T23:26:15.360Z,54.00
2018-09-21T23:29:18.278Z,54.40
2018-09-21T23:32:21.189Z,54.60
2018-09-21T23:35:24.172Z,55.30
2018-09-21T23:38:27.059Z,55.70
2018-09-21T23:41:30.017Z,55.30
2018-09-21T23:44:32.913Z,55.10
2018-09-21T23:47:35.821Z,54.90
2018-09-21T23:50:38.756Z,55.50
2018-09-21T23:53:41.660Z,55.00
2018-09-21T23:56:44.566Z,54.80
2018-09-21T23:59:47.478Z,54.60
